KMBS/MBS METAR and TAF weather

Enter ICAO airport designator
Station Type Date Time Source
KMBS METAR 2021/04/17 01:53 UTC NOAA

KMBS 170153Z AUTO 08005KT 10SM CLR 06/02 A2994 RMK AO2 SLP143 T00560022


Station Type Date Time Source
KMBS Decoded METAR 2021/04/17 01:53 UTC NOAA

MBS INTERNATIONAL AIRPORT, MI, United States (KMBS) 43-32N 084-05W 202M
Apr 16, 2021 - 09:53 PM EDT / 2021.04.17 0153 UTC
Wind: from the E (080 degrees) at 6 MPH (5 KT):0
Visibility: 10 mile(s):0
Sky conditions: clear
Temperature: 42.1 F (5.6 C)
Dew Point: 36.0 F (2.2 C)
Relative Humidity: 78%
Pressure (altimeter): 29.94 in. Hg (1013 hPa)
ob: KMBS 170153Z AUTO 08005KT 10SM CLR 06/02 A2994 RMK AO2 SLP143 T00560022
cycle: 2

Station Type Date Time Source
KMBS TAF 2021/04/16 18:28 UTC NOAA

TAF KMBS 161725Z 1618/1718 32010G16KT P6SM SCT030 BKN045
FM170100 02006KT P6SM BKN030 OVC040
FM170500 36004KT P6SM SCT025 OVC035
FM171700 29004KT P6SM OVC035

Example: see airport list